Time;durP1;ratioP1;P1;durP2;ratioP2;P2;SDS_P1;SDS_P2;PMS_P1;PMS_P2;Temp;Humidity;BMP_temperature;BMP_pressure;BME280_temperature;BME280_humidity;BME280_pressure;Samples;Min_cycle;Max_cycle;Signal;HPM_P1;HPM_P2
2022/01/21 00:02:05;;;;;;;13.57;1.85;;;;;;;;;;5052571;28;20185;-78
2022/01/21 00:04:35;;;;;;;6.53;1.33;;;;;;;;;;5052761;28;20068;-79
2022/01/21 00:07:02;;;;;;;5.50;1.70;;;;;;;;;;5053108;28;20147;-79
2022/01/21 00:09:29;;;;;;;5.45;1.52;;;;;;;;;;5051897;28;20109;-80
2022/01/21 00:11:57;;;;;;;10.18;1.95;;;;;;;;;;5051623;28;20025;-78
2022/01/21 00:14:24;;;;;;;7.25;1.77;;;;;;;;;;5052986;28;20021;-80
2022/01/21 00:16:51;;;;;;;8.60;1.60;;;;;;;;;;5051506;28;20032;-78
2022/01/21 00:19:20;;;;;;;13.55;2.97;;;;;;;;;;5051569;28;20024;-78
2022/01/21 00:30:16;;;;;;;7.65;1.55;;;;;;;;;;5053765;28;20033;-79
2022/01/21 00:32:45;;;;;;;6.50;1.27;;;;;;;;;;5055579;28;20052;-77
2022/01/21 00:35:12;;;;;;;8.98;2.67;;;;;;;;;;5055351;28;20025;-77
2022/01/21 00:37:39;;;;;;;6.38;1.38;;;;;;;;;;5056687;28;20021;-77
2022/01/21 00:40:08;;;;;;;7.50;1.80;;;;;;;;;;5056622;28;20052;-78
2022/01/21 00:45:11;;;;;;;9.70;1.50;;;;;;;;;;5056721;28;20025;-78
2022/01/21 00:47:38;;;;;;;7.40;1.38;;;;;;;;;;5055192;28;20433;-78
2022/01/21 00:50:05;;;;;;;6.20;1.00;;;;;;;;;;5056527;28;20478;-77
2022/01/21 00:52:32;;;;;;;4.13;0.77;;;;;;;;;;5056441;28;20096;-78
2022/01/21 00:55:00;;;;;;;6.78;1.60;;;;;;;;;;5056469;28;20059;-78
2022/01/21 00:57:27;;;;;;;8.05;1.23;;;;;;;;;;5055064;28;20029;-76
2022/01/21 00:59:54;;;;;;;5.68;1.02;;;;;;;;;;5056332;28;20473;-79
2022/01/21 01:02:21;;;;;;;7.05;1.75;;;;;;;;;;5056235;28;20017;-77
2022/01/21 01:04:48;;;;;;;5.00;1.10;;;;;;;;;;5056061;28;20041;-78
2022/01/21 01:07:15;;;;;;;4.30;1.08;;;;;;;;;;5056166;28;20024;-77
2022/01/21 01:09:43;;;;;;;5.15;0.98;;;;;;;;;;5056059;28;20074;-77
2022/01/21 01:12:28;;;;;;;3.67;1.10;;;;;;;;;;5055980;28;20032;-78
2022/01/21 01:20:30;;;;;;;5.35;0.75;;;;;;;;;;5056158;28;20082;-78
2022/01/21 01:23:21;;;;;;;4.30;0.88;;;;;;;;;;5055850;28;20048;-78
2022/01/21 01:28:48;;;;;;;6.30;1.45;;;;;;;;;;5065475;28;20117;-78
2022/01/21 01:31:15;;;;;;;4.88;1.30;;;;;;;;;;5054697;28;20029;-77
2022/01/21 01:33:43;;;;;;;6.32;1.17;;;;;;;;;;5054375;28;20477;-78
2022/01/21 01:36:10;;;;;;;4.82;0.90;;;;;;;;;;5054391;28;20025;-79
2022/01/21 01:41:14;;;;;;;6.55;1.17;;;;;;;;;;5055060;28;20021;-78
2022/01/21 01:51:56;;;;;;;8.00;1.40;;;;;;;;;;5055452;28;20486;-77
2022/01/21 01:54:23;;;;;;;8.88;1.40;;;;;;;;;;5054006;28;20025;-78
2022/01/21 01:56:52;;;;;;;6.55;1.15;;;;;;;;;;5054129;28;20025;-78
2022/01/21 01:59:20;;;;;;;6.57;1.13;;;;;;;;;;5037287;28;20036;-78
2022/01/21 02:01:55;;;;;;;8.82;1.65;;;;;;;;;;5054001;28;20052;-78
2022/01/21 02:04:23;;;;;;;6.57;1.48;;;;;;;;;;5054796;28;20037;-78
2022/01/21 02:06:50;;;;;;;8.20;1.20;;;;;;;;;;5053967;28;20021;-78
2022/01/21 02:09:17;;;;;;;7.05;1.50;;;;;;;;;;5053726;28;20024;-78
2022/01/21 02:11:45;;;;;;;8.55;1.60;;;;;;;;;;5053918;28;20075;-79
2022/01/21 02:14:16;;;;;;;8.38;1.70;;;;;;;;;;5037068;28;20485;-78
2022/01/21 02:22:14;;;;;;;9.40;1.70;;;;;;;;;;5055451;28;20024;-79
2022/01/21 02:24:57;;;;;;;9.52;1.95;;;;;;;;;;5053315;28;20029;-78
2022/01/21 02:27:27;;;;;;;7.53;1.80;;;;;;;;;;5055018;28;20023;-78
2022/01/21 02:30:00;;;;;;;;;;;;;;;;;;5055080;28;20402;-77
2022/01/21 02:32:27;;;;;;;6.55;1.20;;;;;;;;;;5053544;28;19984;-78
2022/01/21 02:34:54;;;;;;;7.57;1.42;;;;;;;;;;5054678;28;20028;-77
2022/01/21 02:37:23;;;;;;;5.80;1.20;;;;;;;;;;5054542;28;20029;-77
2022/01/21 02:39:50;;;;;;;7.68;1.65;;;;;;;;;;5054475;28;20024;-78
2022/01/21 02:42:18;;;;;;;10.88;2.08;;;;;;;;;;5053493;28;20061;-78
2022/01/21 02:44:48;;;;;;;8.88;1.60;;;;;;;;;;5053875;28;20037;-77
2022/01/21 02:47:15;;;;;;;7.20;1.55;;;;;;;;;;5052682;28;20021;-75
2022/01/21 02:49:42;;;;;;;7.50;1.50;;;;;;;;;;5052784;28;20112;-75
2022/01/21 02:52:09;;;;;;;7.80;1.67;;;;;;;;;;5054233;28;20021;-76
2022/01/21 02:54:36;;;;;;;7.45;1.48;;;;;;;;;;5052668;28;20045;-77
2022/01/21 02:57:05;;;;;;;5.10;1.40;;;;;;;;;;5052848;28;20021;-76
2022/01/21 02:59:32;;;;;;;4.32;1.23;;;;;;;;;;5054138;28;20044;-75
2022/01/21 03:02:00;;;;;;;5.53;1.33;;;;;;;;;;5054024;28;20390;-76
2022/01/21 03:04:43;;;;;;;6.35;1.42;;;;;;;;;;5052582;28;20128;-78
2022/01/21 03:07:11;;;;;;;6.43;1.38;;;;;;;;;;5054044;28;20158;-78
2022/01/21 03:09:38;;;;;;;7.05;1.85;;;;;;;;;;5052675;28;20059;-79
2022/01/21 03:12:05;;;;;;;6.45;1.30;;;;;;;;;;5053925;28;20024;-77
2022/01/21 03:14:32;;;;;;;7.57;1.83;;;;;;;;;;5053987;28;20029;-78
2022/01/21 03:17:00;;;;;;;7.22;1.30;;;;;;;;;;5053812;28;20098;-78
2022/01/21 03:19:27;;;;;;;6.75;1.00;;;;;;;;;;5053789;28;20056;-77
2022/01/21 03:21:54;;;;;;;8.20;1.55;;;;;;;;;;5053719;28;20017;-78
2022/01/21 03:24:21;;;;;;;7.15;1.10;;;;;;;;;;5053672;28;20013;-77
2022/01/21 03:26:48;;;;;;;8.18;2.00;;;;;;;;;;5052257;28;20362;-78
2022/01/21 03:29:15;;;;;;;6.43;1.67;;;;;;;;;;5052382;28;20053;-78
2022/01/21 03:31:42;;;;;;;10.07;1.48;;;;;;;;;;5053393;28;20079;-78
2022/01/21 03:34:10;;;;;;;5.72;1.40;;;;;;;;;;5052219;28;20025;-76
2022/01/21 03:36:40;;;;;;;6.15;1.33;;;;;;;;;;5052107;28;20029;-78
2022/01/21 03:39:07;;;;;;;8.00;1.60;;;;;;;;;;5053275;28;20021;-76
2022/01/21 03:41:34;;;;;;;9.05;1.50;;;;;;;;;;5053170;28;20017;-77
2022/01/21 03:44:01;;;;;;;7.80;1.63;;;;;;;;;;5052014;28;20032;-77
2022/01/21 03:46:28;;;;;;;4.28;0.90;;;;;;;;;;5051963;28;20520;-77
2022/01/21 03:48:56;;;;;;;7.60;1.40;;;;;;;;;;5053144;28;20025;-76
2022/01/21 03:51:23;;;;;;;9.10;1.65;;;;;;;;;;5051870;28;20032;-77
2022/01/21 03:53:50;;;;;;;8.10;1.67;;;;;;;;;;5053212;28;20048;-77
2022/01/21 03:56:17;;;;;;;7.72;1.70;;;;;;;;;;5051899;28;20048;-76
2022/01/21 03:58:44;;;;;;;7.30;1.70;;;;;;;;;;5051704;28;20028;-76
2022/01/21 04:01:12;;;;;;;6.20;1.52;;;;;;;;;;5051804;28;20473;-77
2022/01/21 04:03:39;;;;;;;6.13;1.77;;;;;;;;;;5051557;28;20025;-77
2022/01/21 04:06:06;;;;;;;8.07;1.70;;;;;;;;;;5051353;28;20079;-77
2022/01/21 04:08:33;;;;;;;6.25;1.23;;;;;;;;;;5051716;28;20070;-77
2022/01/21 04:11:00;;;;;;;6.78;1.60;;;;;;;;;;5051755;28;20036;-76
2022/01/21 04:13:28;;;;;;;7.72;1.63;;;;;;;;;;5052817;28;20032;-77
2022/01/21 04:15:57;;;;;;;7.68;1.55;;;;;;;;;;5051631;28;20107;-75
2022/01/21 04:18:24;;;;;;;4.57;0.93;;;;;;;;;;5052684;28;20100;-75
2022/01/21 04:20:52;;;;;;;6.00;0.95;;;;;;;;;;5051424;28;20020;-75
2022/01/21 04:23:20;;;;;;;4.00;0.80;;;;;;;;;;5052671;28;20017;-76
2022/01/21 04:25:48;;;;;;;6.80;1.50;;;;;;;;;;5051444;28;20021;-77
2022/01/21 04:28:15;;;;;;;7.10;1.00;;;;;;;;;;5051328;28;20509;-76
2022/01/21 04:30:42;;;;;;;5.35;1.10;;;;;;;;;;5051408;28;20056;-76
2022/01/21 04:33:09;;;;;;;6.72;1.00;;;;;;;;;;5051257;28;20428;-75
2022/01/21 04:35:36;;;;;;;6.32;1.08;;;;;;;;;;5051276;28;20523;-75
2022/01/21 04:38:09;;;;;;;5.78;1.00;;;;;;;;;;5052567;28;20029;-76
2022/01/21 04:40:45;;;;;;;7.10;1.08;;;;;;;;;;5052586;28;20466;-76
2022/01/21 04:48:42;;;;;;;6.38;1.40;;;;;;;;;;5052998;28;20423;-76
2022/01/21 04:51:15;;;;;;;5.38;1.00;;;;;;;;;;5051379;28;20049;-77
2022/01/21 04:53:44;;;;;;;4.57;1.00;;;;;;;;;;5051259;28;20045;-76
2022/01/21 04:56:12;;;;;;;5.00;1.23;;;;;;;;;;5051213;28;20055;-76
2022/01/21 04:58:39;;;;;;;5.40;1.02;;;;;;;;;;5052289;28;20469;-76
2022/01/21 05:01:07;;;;;;;6.47;1.25;;;;;;;;;;5051136;28;20055;-76
2022/01/21 05:03:36;;;;;;;6.03;0.98;;;;;;;;;;5050984;28;20025;-76
2022/01/21 05:06:03;;;;;;;6.07;1.00;;;;;;;;;;5052413;28;20498;-77
2022/01/21 05:08:54;;;;;;;6.10;1.10;;;;;;;;;;5051058;28;20033;-76
2022/01/21 05:11:18;;;;;;;6.65;1.30;;;;;;;;;;5052575;28;20496;-77
2022/01/21 05:13:56;;;;;;;5.60;1.10;;;;;;;;;;5051353;28;20128;-78
2022/01/21 05:16:36;;;;;;;3.65;0.70;;;;;;;;;;5051263;28;20032;-79
2022/01/21 05:19:06;;;;;;;5.10;1.35;;;;;;;;;;5056547;28;20108;-77
2022/01/21 05:21:34;;;;;;;6.22;1.00;;;;;;;;;;5055561;28;20045;-77
2022/01/21 05:24:01;;;;;;;4.03;0.85;;;;;;;;;;5056594;28;20096;-78
2022/01/21 05:26:36;;;;;;;6.60;1.02;;;;;;;;;;5057250;28;20524;-78
2022/01/21 05:29:03;;;;;;;6.45;1.52;;;;;;;;;;5056730;28;20063;-78
2022/01/21 05:31:31;;;;;;;3.53;1.05;;;;;;;;;;5057061;28;20539;-78
2022/01/21 05:33:58;;;;;;;4.57;1.42;;;;;;;;;;5056546;28;20025;-77
2022/01/21 05:36:26;;;;;;;6.10;1.10;;;;;;;;;;5055221;28;20060;-77
2022/01/21 05:38:56;;;;;;;4.47;1.13;;;;;;;;;;5055086;28;20493;-77
2022/01/21 05:41:24;;;;;;;5.20;1.15;;;;;;;;;;5056554;28;20024;-77
2022/01/21 05:44:00;;;;;;;5.22;1.40;;;;;;;;;;5055103;28;20029;-78
2022/01/21 05:46:54;;;;;;;6.50;1.15;;;;;;;;;;5056818;28;20021;-78
2022/01/21 05:49:15;;;;;;;4.70;1.38;;;;;;;;;;5056853;28;20033;-78
2022/01/21 05:51:45;;;;;;;7.63;1.40;;;;;;;;;;5055410;28;20063;-78
2022/01/21 05:54:18;;;;;;;6.07;1.50;;;;;;;;;;5056547;28;20056;-77
2022/01/21 05:56:48;;;;;;;4.57;1.40;;;;;;;;;;5057305;28;20025;-77
2022/01/21 05:59:15;;;;;;;6.90;1.50;;;;;;;;;;5055572;28;20028;-78
2022/01/21 06:01:43;;;;;;;6.45;1.58;;;;;;;;;;5056119;28;20390;-78
2022/01/21 06:04:10;;;;;;;9.45;1.52;;;;;;;;;;5058882;28;20044;-77
2022/01/21 06:06:37;;;;;;;6.25;1.55;;;;;;;;;;5058246;28;20021;-76
2022/01/21 06:09:05;;;;;;;4.95;1.30;;;;;;;;;;5053894;28;20047;-76
2022/01/21 06:11:32;;;;;;;9.52;2.03;;;;;;;;;;5053988;28;20059;-76
2022/01/21 06:14:00;;;;;;;10.82;2.22;;;;;;;;;;5054110;28;20025;-76
2022/01/21 06:16:28;;;;;;;22.42;6.78;;;;;;;;;;5055746;28;20028;-77
2022/01/21 06:18:55;;;;;;;21.15;7.65;;;;;;;;;;5054436;28;20025;-78
2022/01/21 06:21:23;;;;;;;19.73;7.47;;;;;;;;;;5054688;28;20386;-77
2022/01/21 06:23:50;;;;;;;10.77;2.38;;;;;;;;;;5055285;28;20431;-78
2022/01/21 06:26:17;;;;;;;14.20;3.10;;;;;;;;;;5055932;28;20017;-78
2022/01/21 06:28:44;;;;;;;10.02;3.08;;;;;;;;;;5055792;28;20075;-78
2022/01/21 06:31:11;;;;;;;8.18;1.88;;;;;;;;;;5055764;28;20080;-78
2022/01/21 06:33:38;;;;;;;7.22;1.40;;;;;;;;;;5054664;28;20028;-78
2022/01/21 06:36:06;;;;;;;7.88;1.33;;;;;;;;;;5054111;28;20025;-76
2022/01/21 06:38:35;;;;;;;8.80;1.30;;;;;;;;;;5054937;28;20021;-76
2022/01/21 06:41:03;;;;;;;7.00;1.08;;;;;;;;;;5053454;28;20079;-78
2022/01/21 06:43:30;;;;;;;4.47;0.80;;;;;;;;;;5053543;28;20017;-77
2022/01/21 06:45:58;;;;;;;5.88;0.90;;;;;;;;;;5054633;28;20017;-77
2022/01/21 06:48:25;;;;;;;5.10;0.75;;;;;;;;;;5054712;28;20032;-78
2022/01/21 06:50:52;;;;;;;7.55;0.80;;;;;;;;;;5056867;28;20052;-79
2022/01/21 06:53:19;;;;;;;3.95;1.02;;;;;;;;;;5056540;28;20118;-79
2022/01/21 06:55:47;;;;;;;6.15;0.95;;;;;;;;;;5054252;28;20053;-78
2022/01/21 06:58:15;;;;;;;6.43;0.90;;;;;;;;;;5054377;28;20074;-79
2022/01/21 07:00:42;;;;;;;3.88;1.10;;;;;;;;;;5054897;28;20036;-79
2022/01/21 07:03:10;;;;;;;4.35;0.85;;;;;;;;;;5054730;28;20119;-77
2022/01/21 07:05:37;;;;;;;7.38;0.93;;;;;;;;;;5055556;28;20052;-80
2022/01/21 07:08:05;;;;;;;2.95;0.50;;;;;;;;;;5055412;28;20036;-79
2022/01/21 07:10:33;;;;;;;6.25;0.95;;;;;;;;;;5053658;28;20040;-79
2022/01/21 07:13:00;;;;;;;4.00;0.98;;;;;;;;;;5055888;28;20440;-79
2022/01/21 07:15:27;;;;;;;5.47;0.77;;;;;;;;;;5056641;28;20025;-79
2022/01/21 07:17:55;;;;;;;4.88;1.20;;;;;;;;;;5056125;28;20025;-79
2022/01/21 07:20:22;;;;;;;5.68;1.02;;;;;;;;;;5056406;28;20028;-80
2022/01/21 07:22:50;;;;;;;5.53;0.82;;;;;;;;;;5055262;28;20033;-78
2022/01/21 07:25:17;;;;;;;5.53;0.90;;;;;;;;;;5053925;28;20028;-79
2022/01/21 07:27:44;;;;;;;7.03;1.50;;;;;;;;;;5056053;28;20092;-79
2022/01/21 07:30:12;;;;;;;4.15;1.00;;;;;;;;;;5054356;28;20021;-79
2022/01/21 07:32:40;;;;;;;4.43;1.10;;;;;;;;;;5053840;28;20107;-78
2022/01/21 07:35:09;;;;;;;3.20;0.80;;;;;;;;;;5053990;28;20032;-77
2022/01/21 07:37:37;;;;;;;4.25;0.60;;;;;;;;;;5053518;28;20037;-78
2022/01/21 07:40:05;;;;;;;3.42;1.05;;;;;;;;;;5036277;28;20029;-79
2022/01/21 07:42:33;;;;;;;5.57;0.93;;;;;;;;;;5054437;28;20492;-78
2022/01/21 07:45:00;;;;;;;3.00;0.70;;;;;;;;;;5052888;28;20565;-79
2022/01/21 07:47:27;;;;;;;4.72;1.17;;;;;;;;;;5053162;28;20393;-79
2022/01/21 07:49:54;;;;;;;4.25;0.73;;;;;;;;;;5052547;28;20048;-78
2022/01/21 07:52:23;;;;;;;4.47;0.70;;;;;;;;;;5053809;28;20079;-79
2022/01/21 07:54:50;;;;;;;4.32;0.90;;;;;;;;;;5052852;28;20462;-78
2022/01/21 07:57:17;;;;;;;6.60;1.20;;;;;;;;;;5053651;28;20096;-79
2022/01/21 07:59:44;;;;;;;7.97;0.95;;;;;;;;;;5052586;28;20025;-78
2022/01/21 08:02:12;;;;;;;4.28;0.77;;;;;;;;;;5053681;28;20017;-79
2022/01/21 08:04:39;;;;;;;5.55;1.20;;;;;;;;;;5054303;28;20064;-79
2022/01/21 08:07:09;;;;;;;5.93;1.38;;;;;;;;;;5053135;28;20025;-80
2022/01/21 08:09:36;;;;;;;5.03;0.98;;;;;;;;;;5054287;28;20078;-79
2022/01/21 08:12:03;;;;;;;4.45;0.90;;;;;;;;;;5054260;28;20056;-80
2022/01/21 08:14:30;;;;;;;3.90;0.88;;;;;;;;;;5053888;28;20033;-80
2022/01/21 08:16:59;;;;;;;3.00;0.77;;;;;;;;;;5052963;28;20029;-80
2022/01/21 08:19:26;;;;;;;3.92;0.80;;;;;;;;;;5053979;28;20034;-78
2022/01/21 08:21:53;;;;;;;5.35;1.10;;;;;;;;;;5054362;28;20096;-79
2022/01/21 08:24:21;;;;;;;4.38;1.10;;;;;;;;;;5054095;28;20021;-80
2022/01/21 08:26:48;;;;;;;5.45;1.10;;;;;;;;;;5052680;28;20049;-79
2022/01/21 08:29:16;;;;;;;7.78;1.35;;;;;;;;;;5053959;28;20025;-78
2022/01/21 08:31:45;;;;;;;4.85;1.02;;;;;;;;;;5053800;28;20025;-78
2022/01/21 08:34:13;;;;;;;7.95;1.67;;;;;;;;;;5054057;28;20048;-79
2022/01/21 08:36:40;;;;;;;6.20;1.00;;;;;;;;;;5054678;28;20029;-78
2022/01/21 08:39:07;;;;;;;6.60;1.20;;;;;;;;;;5053154;28;20060;-77
2022/01/21 08:41:35;;;;;;;7.07;1.25;;;;;;;;;;5051304;28;20021;-77
2022/01/21 08:44:02;;;;;;;3.58;0.88;;;;;;;;;;5051279;28;20028;-78
2022/01/21 08:46:29;;;;;;;6.80;1.33;;;;;;;;;;5051233;28;20025;-76
2022/01/21 08:48:56;;;;;;;8.57;1.30;;;;;;;;;;5052466;28;20052;-76
2022/01/21 08:51:29;;;;;;;5.75;1.02;;;;;;;;;;5052688;28;20108;-77
2022/01/21 08:53:56;;;;;;;6.78;1.25;;;;;;;;;;5056559;28;20108;-78
2022/01/21 08:56:23;;;;;;;5.25;1.10;;;;;;;;;;5055011;28;20017;-77
2022/01/21 08:58:51;;;;;;;7.60;1.50;;;;;;;;;;5055527;28;20032;-79
2022/01/21 09:01:18;;;;;;;3.42;0.70;;;;;;;;;;5057247;28;20148;-79
2022/01/21 09:03:46;;;;;;;4.75;1.08;;;;;;;;;;5056794;28;20100;-78
2022/01/21 09:06:18;;;;;;;6.50;1.30;;;;;;;;;;5055860;28;20021;-78
2022/01/21 09:08:46;;;;;;;6.93;1.50;;;;;;;;;;5055825;28;20027;-77
2022/01/21 09:11:14;;;;;;;8.18;1.20;;;;;;;;;;5056323;28;20107;-78
2022/01/21 09:13:42;;;;;;;6.90;1.50;;;;;;;;;;5056055;28;20158;-77
2022/01/21 09:16:10;;;;;;;7.68;1.60;;;;;;;;;;5055693;28;20029;-78
2022/01/21 09:19:07;;;;;;;5.93;1.15;;;;;;;;;;5075447;28;20029;-77
2022/01/21 09:21:36;;;;;;;5.03;1.10;;;;;;;;;;5057430;28;20449;-77
2022/01/21 09:24:04;;;;;;;5.75;1.20;;;;;;;;;;5055587;28;20035;-78
2022/01/21 09:26:31;;;;;;;5.95;1.05;;;;;;;;;;5055944;28;20056;-77
2022/01/21 09:28:59;;;;;;;8.02;1.45;;;;;;;;;;5056847;28;20021;-78
2022/01/21 09:31:27;;;;;;;3.78;0.90;;;;;;;;;;5056916;28;20478;-77
2022/01/21 09:33:54;;;;;;;5.07;1.10;;;;;;;;;;5057190;28;20024;-78
2022/01/21 09:36:21;;;;;;;4.10;1.00;;;;;;;;;;5056528;28;20070;-78
2022/01/21 09:38:49;;;;;;;6.45;1.35;;;;;;;;;;5056963;28;20025;-78
2022/01/21 09:41:17;;;;;;;4.72;1.20;;;;;;;;;;5055628;28;20174;-78
2022/01/21 09:43:48;;;;;;;5.70;1.10;;;;;;;;;;5055375;28;20082;-78
2022/01/21 09:46:17;;;;;;;6.18;1.48;;;;;;;;;;5055467;28;20025;-78
2022/01/21 09:49:05;;;;;;;5.20;0.98;;;;;;;;;;5055699;28;20025;-78
2022/01/21 09:51:33;;;;;;;5.45;1.20;;;;;;;;;;5057134;28;20393;-78
2022/01/21 09:54:04;;;;;;;5.10;1.10;;;;;;;;;;5056426;28;20088;-78
2022/01/21 09:56:31;;;;;;;4.40;1.48;;;;;;;;;;5054919;28;20021;-78
2022/01/21 09:58:59;;;;;;;4.85;1.50;;;;;;;;;;5054588;28;20390;-78
2022/01/21 10:01:27;;;;;;;6.07;1.40;;;;;;;;;;5038315;28;20391;-77
2022/01/21 10:03:55;;;;;;;9.00;1.83;;;;;;;;;;5055201;28;20416;-77
2022/01/21 10:06:27;;;;;;;5.82;1.73;;;;;;;;;;5054462;28;20083;-77
2022/01/21 10:08:57;;;;;;;6.47;2.63;;;;;;;;;;5054193;28;20071;-77
2022/01/21 10:11:24;;;;;;;7.35;2.38;;;;;;;;;;5055959;28;20478;-77
2022/01/21 10:13:52;;;;;;;5.43;1.48;;;;;;;;;;5055576;28;20021;-77
2022/01/21 10:16:19;;;;;;;4.07;1.33;;;;;;;;;;5054050;28;20024;-77
2022/01/21 10:19:07;;;;;;;8.90;1.90;;;;;;;;;;5053940;28;20139;-77
2022/01/21 10:21:36;;;;;;;3.97;1.33;;;;;;;;;;5055268;28;20017;-78
2022/01/21 10:24:11;;;;;;;4.97;1.33;;;;;;;;;;5054142;28;20021;-77
2022/01/21 10:26:52;;;;;;;5.43;1.33;;;;;;;;;;5053558;28;20029;-77
2022/01/21 10:29:20;;;;;;;7.35;1.13;;;;;;;;;;5053386;28;20025;-77
2022/01/21 10:31:57;;;;;;;7.05;1.40;;;;;;;;;;5054625;28;20107;-76
2022/01/21 10:34:35;;;;;;;4.00;0.80;;;;;;;;;;5054605;28;20021;-75
2022/01/21 10:37:10;;;;;;;7.28;1.80;;;;;;;;;;5054620;28;20044;-75
2022/01/21 10:39:55;;;;;;;6.78;1.98;;;;;;;;;;5054377;28;20024;-75
2022/01/21 10:42:23;;;;;;;6.70;1.75;;;;;;;;;;5054541;28;20032;-75
2022/01/21 10:44:51;;;;;;;5.63;1.25;;;;;;;;;;5053129;28;20017;-75
2022/01/21 10:47:18;;;;;;;4.82;1.23;;;;;;;;;;5054405;28;20096;-75
2022/01/21 10:49:58;;;;;;;7.32;1.38;;;;;;;;;;5053045;28;20647;-75
2022/01/21 10:52:36;;;;;;;7.90;2.45;;;;;;;;;;5053026;28;20025;-75
2022/01/21 10:55:05;;;;;;;7.40;2.03;;;;;;;;;;5052923;28;20032;-75
2022/01/21 10:57:36;;;;;;;8.40;2.00;;;;;;;;;;5054148;28;20016;-75
2022/01/21 11:00:03;;;;;;;;;;;;;;;;;;5053215;28;20029;-75
2022/01/21 11:02:34;;;;;;;12.13;2.55;;;;;;;;;;5052714;28;19905;-75
2022/01/21 11:05:08;;;;;;;4.57;1.20;;;;;;;;;;5052460;28;20118;-74
2022/01/21 11:08:12;;;;;;;8.30;1.70;;;;;;;;;;5052753;28;20478;-73
2022/01/21 11:10:43;;;;;;;4.43;1.02;;;;;;;;;;5041882;28;20029;-74
2022/01/21 11:13:15;;;;;;;8.52;1.75;;;;;;;;;;5052580;28;20017;-73
2022/01/21 11:15:45;;;;;;;8.50;1.38;;;;;;;;;;5053837;28;20585;-74
2022/01/21 11:18:15;;;;;;;4.43;1.45;;;;;;;;;;5052459;28;20021;-73
2022/01/21 11:21:16;;;;;;;5.28;1.40;;;;;;;;;;5053676;28;20382;-73
2022/01/21 11:23:43;;;;;;;5.35;1.70;;;;;;;;;;5053728;28;20382;-74
2022/01/21 11:26:11;;;;;;;6.53;1.60;;;;;;;;;;5052389;28;20028;-74
2022/01/21 11:28:39;;;;;;;7.43;1.52;;;;;;;;;;5052217;28;20024;-74
2022/01/21 11:31:07;;;;;;;6.55;2.05;;;;;;;;;;5053489;28;20017;-74
2022/01/21 11:33:34;;;;;;;5.90;1.30;;;;;;;;;;5052207;28;20021;-73
2022/01/21 11:36:02;;;;;;;5.28;1.40;;;;;;;;;;5053457;28;20025;-74
2022/01/21 11:38:30;;;;;;;7.60;1.45;;;;;;;;;;5053405;28;20095;-74
2022/01/21 11:40:57;;;;;;;2.90;1.15;;;;;;;;;;5051980;28;20112;-74
2022/01/21 11:43:25;;;;;;;4.10;1.30;;;;;;;;;;5053422;28;20025;-74
2022/01/21 11:51:47;;;;;;;7.53;1.70;;;;;;;;;;5053452;28;20072;-73
2022/01/21 11:54:24;;;;;;;5.35;1.63;;;;;;;;;;5053202;28;20052;-73
2022/01/21 11:56:51;;;;;;;6.10;1.90;;;;;;;;;;5051826;28;20025;-73
2022/01/21 12:01:52;;;;;;;4.90;1.30;;;;;;;;;;5053103;28;20103;-73
2022/01/21 12:04:31;;;;;;;7.13;1.90;;;;;;;;;;5052728;28;20502;-73
2022/01/21 12:06:59;;;;;;;7.07;1.50;;;;;;;;;;5051682;28;20048;-73
2022/01/21 12:09:44;;;;;;;4.00;1.20;;;;;;;;;;5051585;28;20112;-73
2022/01/21 12:12:13;;;;;;;9.65;2.00;;;;;;;;;;5052967;28;20489;-74
2022/01/21 12:14:43;;;;;;;5.40;1.63;;;;;;;;;;5051592;28;20397;-73
2022/01/21 12:17:21;;;;;;;7.67;1.90;;;;;;;;;;5051695;28;20021;-74
2022/01/21 12:19:57;;;;;;;5.63;1.60;;;;;;;;;;5051531;28;20021;-74
2022/01/21 12:22:24;;;;;;;7.28;1.70;;;;;;;;;;5052972;28;20024;-74
2022/01/21 12:24:51;;;;;;;7.82;1.73;;;;;;;;;;5052862;28;20552;-74
2022/01/21 12:27:19;;;;;;;8.52;1.98;;;;;;;;;;5058570;28;20017;-72
2022/01/21 12:29:47;;;;;;;8.32;1.77;;;;;;;;;;5058165;28;20028;-74
2022/01/21 12:32:25;;;;;;;7.25;1.85;;;;;;;;;;5058192;28;20055;-74
2022/01/21 12:35:02;;;;;;;7.07;1.75;;;;;;;;;;5059418;28;20032;-73
2022/01/21 12:40:32;;;;;;;8.85;2.28;;;;;;;;;;5059372;28;20036;-73
2022/01/21 12:42:59;;;;;;;6.13;1.58;;;;;;;;;;5058061;28;20108;-74
2022/01/21 12:45:26;;;;;;;7.00;1.50;;;;;;;;;;5059326;28;20033;-74
2022/01/21 12:47:54;;;;;;;8.77;1.30;;;;;;;;;;5059318;28;20028;-74
2022/01/21 12:50:34;;;;;;;4.85;1.30;;;;;;;;;;5057892;28;20557;-74
2022/01/21 12:58:16;;;;;;;5.78;1.05;;;;;;;;;;5059511;28;20090;-73
2022/01/21 13:00:44;;;;;;;6.88;1.40;;;;;;;;;;5057817;28;20029;-74
2022/01/21 13:03:20;;;;;;;6.38;1.35;;;;;;;;;;5057937;28;20393;-74
2022/01/21 13:05:58;;;;;;;7.65;1.85;;;;;;;;;;5058994;28;20179;-74
2022/01/21 13:08:37;;;;;;;6.80;1.75;;;;;;;;;;5057692;28;20017;-75
2022/01/21 13:11:16;;;;;;;7.65;1.67;;;;;;;;;;5057701;28;20090;-74
2022/01/21 13:13:53;;;;;;;7.18;1.60;;;;;;;;;;5057609;28;20028;-75
2022/01/21 13:16:25;;;;;;;8.77;1.75;;;;;;;;;;5058866;28;20128;-75
2022/01/21 13:18:59;;;;;;;5.22;1.33;;;;;;;;;;5058799;28;20460;-73
2022/01/21 13:21:26;;;;;;;6.85;1.67;;;;;;;;;;5058878;28;20100;-74
2022/01/21 13:23:58;;;;;;;8.75;1.70;;;;;;;;;;5058924;28;20393;-74
2022/01/21 13:26:27;;;;;;;8.57;1.95;;;;;;;;;;5058918;28;20092;-73
2022/01/21 13:28:58;;;;;;;6.63;1.95;;;;;;;;;;5058810;28;20013;-74
2022/01/21 13:31:26;;;;;;;6.47;1.67;;;;;;;;;;5057470;28;20090;-75
2022/01/21 13:33:53;;;;;;;7.18;1.67;;;;;;;;;;5057469;28;20028;-74
2022/01/21 13:36:38;;;;;;;8.18;1.80;;;;;;;;;;5057487;28;20501;-74
2022/01/21 13:39:11;;;;;;;6.85;1.33;;;;;;;;;;5054343;28;20730;-74
2022/01/21 13:41:50;;;;;;;9.18;2.00;;;;;;;;;;5054098;28;20025;-74
2022/01/21 13:44:44;;;;;;;6.45;1.50;;;;;;;;;;5055543;28;20016;-74
2022/01/21 13:47:32;;;;;;;8.23;1.85;;;;;;;;;;5053216;28;20029;-74
2022/01/21 13:50:01;;;;;;;8.45;1.80;;;;;;;;;;5055568;28;20481;-74
2022/01/21 13:52:35;;;;;;;5.07;1.38;;;;;;;;;;5054149;28;20029;-74
2022/01/21 13:55:03;;;;;;;6.82;1.70;;;;;;;;;;5054120;28;20025;-74
2022/01/21 13:57:31;;;;;;;5.20;1.52;;;;;;;;;;5053970;28;20044;-75
2022/01/21 13:59:58;;;;;;;8.10;2.30;;;;;;;;;;5055231;28;20389;-74
2022/01/21 14:02:25;;;;;;;5.60;1.45;;;;;;;;;;5053935;28;20017;-74
2022/01/21 14:04:57;;;;;;;4.38;1.30;;;;;;;;;;5054981;28;20060;-73
2022/01/21 14:07:29;;;;;;;7.03;1.55;;;;;;;;;;5053917;28;20033;-73
2022/01/21 14:09:57;;;;;;;5.82;1.45;;;;;;;;;;5053996;28;20043;-73
2022/01/21 14:12:25;;;;;;;6.00;1.80;;;;;;;;;;5053910;28;20033;-74
2022/01/21 14:14:54;;;;;;;6.53;1.30;;;;;;;;;;5055087;28;20070;-74
2022/01/21 14:17:24;;;;;;;4.57;1.50;;;;;;;;;;5053724;28;20035;-73
2022/01/21 14:19:55;;;;;;;6.20;1.50;;;;;;;;;;5053756;28;20029;-75
2022/01/21 14:22:23;;;;;;;5.85;1.60;;;;;;;;;;5054907;28;20021;-74
2022/01/21 14:24:51;;;;;;;5.38;1.75;;;;;;;;;;5053613;28;20389;-74
2022/01/21 14:27:28;;;;;;;6.50;1.42;;;;;;;;;;5054910;28;20017;-74
2022/01/21 14:30:00;;;;;;;6.40;1.80;;;;;;;;;;5054726;28;20390;-73
2022/01/21 14:32:37;;;;;;;9.95;1.52;;;;;;;;;;5054690;28;20104;-73
2022/01/21 14:35:29;;;;;;;8.68;1.90;;;;;;;;;;5053480;28;20031;-73
2022/01/21 14:38:10;;;;;;;8.40;1.88;;;;;;;;;;5054744;28;20044;-74
2022/01/21 14:40:48;;;;;;;7.30;1.80;;;;;;;;;;5054457;28;20021;-74
2022/01/21 14:43:18;;;;;;;4.85;1.50;;;;;;;;;;5053362;28;20116;-75
2022/01/21 14:46:01;;;;;;;6.30;1.58;;;;;;;;;;5053250;28;20160;-73
2022/01/21 14:48:30;;;;;;;4.07;1.45;;;;;;;;;;5053057;28;20110;-73
2022/01/21 14:51:16;;;;;;;9.85;2.08;;;;;;;;;;5054395;28;20055;-73
2022/01/21 14:53:45;;;;;;;5.05;1.60;;;;;;;;;;5054361;28;20035;-73
2022/01/21 14:56:24;;;;;;;5.72;1.63;;;;;;;;;;5054302;28;20025;-75
2022/01/21 14:59:06;;;;;;;5.00;1.52;;;;;;;;;;5054351;28;20052;-74
2022/01/21 15:01:33;;;;;;;3.65;1.25;;;;;;;;;;5052948;28;20033;-74
2022/01/21 15:04:12;;;;;;;5.97;1.50;;;;;;;;;;5053930;28;20048;-73
2022/01/21 15:06:41;;;;;;;5.80;1.42;;;;;;;;;;5052870;28;20022;-72
2022/01/21 15:09:08;;;;;;;5.68;1.48;;;;;;;;;;5054051;28;20391;-73
2022/01/21 15:14:33;;;;;;;8.13;1.58;;;;;;;;;;5053992;28;20090;-74
2022/01/21 15:17:07;;;;;;;7.20;1.98;;;;;;;;;;5052666;28;20021;-73
2022/01/21 15:19:39;;;;;;;9.43;1.70;;;;;;;;;;5053815;28;20417;-72
2022/01/21 15:22:09;;;;;;;8.68;1.88;;;;;;;;;;5052643;28;20031;-74
2022/01/21 15:24:36;;;;;;;6.13;1.80;;;;;;;;;;5053835;28;20124;-73
2022/01/21 15:27:04;;;;;;;9.55;1.85;;;;;;;;;;5052449;28;20029;-73
2022/01/21 15:29:31;;;;;;;6.00;1.75;;;;;;;;;;5053672;28;20025;-73
2022/01/21 15:31:58;;;;;;;5.85;1.60;;;;;;;;;;5053642;28;20027;-73
2022/01/21 15:34:25;;;;;;;8.73;1.80;;;;;;;;;;5052280;28;20524;-73
2022/01/21 15:36:52;;;;;;;5.93;2.05;;;;;;;;;;5053588;28;20025;-74
2022/01/21 15:39:19;;;;;;;7.75;2.17;;;;;;;;;;5052275;28;20036;-74
2022/01/21 15:41:47;;;;;;;8.13;2.00;;;;;;;;;;5052084;28;20484;-74
2022/01/21 15:44:14;;;;;;;5.03;1.73;;;;;;;;;;5052070;28;20048;-74
2022/01/21 15:46:42;;;;;;;7.25;2.25;;;;;;;;;;5052147;28;20020;-74
2022/01/21 15:49:11;;;;;;;7.63;2.03;;;;;;;;;;5053304;28;20078;-72
2022/01/21 15:51:40;;;;;;;4.80;1.73;;;;;;;;;;5053387;28;20017;-74
2022/01/21 15:54:07;;;;;;;7.70;2.10;;;;;;;;;;5052118;28;20041;-74
2022/01/21 15:56:34;;;;;;;5.43;1.73;;;;;;;;;;5051969;28;20104;-73
2022/01/21 15:59:01;;;;;;;6.82;2.13;;;;;;;;;;5051911;28;20025;-72
2022/01/21 16:01:28;;;;;;;9.65;2.88;;;;;;;;;;5052511;28;20021;-73